• Join FlightAware (Why Join?)
  • Login
  • US Flag 
08:12PM EDT


 

Airport Tracker/Info


-or-


 

Live Flight TrackerFlight Track Log ✈ SWA2612 ✈ 08-May-2013 ✈ KONT - KPHX

Flight Track Log - Related Links

Times and Time Zones

All times are in EDT time to prevent confusion due to time zone crossing. See the SWA2612 flight status page for this flight to view local times or setup timezone preferences in your user account.

Time Position Orientation Groundspeed Altitude Reporting Facility
EDT Latitude Longitude Course Direction KTS MPH feet Rate Location/Type
11:19PM 33.9947 -117.5853 148° Southeast 215 247 5,700  Level Los Angeles Center
11:20PM 33.9314 -117.5394 149° Southeast 247 284 8,700 2,340 Climbing Los Angeles Center
11:21PM 33.8767 -117.4950 146° Southeast 282 325 10,600 2,880 Climbing Los Angeles Center
11:22PM 33.7864 -117.4194 145° Southeast 327 376 14,700 4,140 Climbing Los Angeles Center
11:23PM 33.7258 -117.3044 122° Southeast 360 414 19,200 3,780 Climbing Los Angeles Center
11:25PM 33.7158 -117.1750 95° East 386 444 22,500 2,820 Climbing Los Angeles Center
11:26PM 33.7058 -117.0397 95° East 401 461 25,100 2,520 Climbing Los Angeles Center
11:27PM 33.6931 -116.9006 96° East 415 478 27,700 2,700 Climbing Los Angeles Center
11:28PM 33.6794 -116.7389 96° East 438 504 30,700 2,580 Climbing Los Angeles Center
11:29PM 33.6667 -116.5906 96° East 444 511 33,000 1,020 Climbing Los Angeles Center
11:30PM 33.6544 -116.4436 96° East 443 510 33,000  Level Los Angeles Center
11:31PM 33.6381 -116.2692 96° East 439 505 33,000  Level Los Angeles Center
11:32PM 33.6267 -116.1214 95° East 442 509 33,000  Level Los Angeles Center
11:33PM 33.6247 -115.9753 91° East 437 503 33,000  Level Los Angeles Center
11:34PM 33.6211 -115.8294 92° East 435 501 33,000  Level Los Angeles Center
11:35PM 33.6175 -115.6842 92° East 437 503 33,000  Level Los Angeles Center
11:36PM 33.6053 -115.5675 97° East 438 504 33,000  Level Los Angeles Center
11:37PM 33.5875 -115.3653 96° East 435 501 33,000  Level Los Angeles Center
11:38PM 33.5736 -115.2217 97° East 434 499 33,000  Level Los Angeles Center
11:39PM 33.5597 -115.0769 97° East 436 502 33,000  Level Los Angeles Center
11:40PM 33.5458 -114.9328 97° East 437 503 33,000  Level Los Angeles Center
11:41PM 33.5322 -114.7878 96° East 438 504 33,000  Level Los Angeles Center
11:42PM 33.5183 -114.6456 97° East 433 498 33,000 -60 Level Los Angeles Center
11:43PM 33.5039 -114.5025 97° East 436 502 32,900 -1,260 Descending Los Angeles Center
11:44PM 33.4897 -114.3614 97° East 428 493 30,500 -2,880 Descending Los Angeles Center
11:45PM 33.4717 -114.1900 97° East 434 499 27,000 -2,700 Descending Los Angeles Center
11:46PM 33.4542 -114.0489 98° East 432 497 25,000 -1,020 Descending Los Angeles Center
11:47PM 33.4275 -113.9133 103° East 419 482 25,000  Level Los Angeles Center
11:48PM 33.3981 -113.7778 105° East 419 482 25,000  Level Los Angeles Center
11:49PM 33.3714 -113.6406 103° East 423 487 25,000 -1,320 Level Los Angeles Center
11:50PM 33.3425 -113.4892 103° East 419 482 22,300 -1,560 Descending Los Angeles Center
11:51PM 33.3158 -113.3600 104° East 406 467 21,800 -1,380 Descending Los Angeles Center
11:52PM 33.2906 -113.2353 104° East 393 452 19,500 -2,220 Descending Los Angeles Center
11:53PM 33.2742 -113.1128 99° East 394 453 17,300 -1,320 Descending Los Angeles Center
11:54PM 33.2833 -113.0000 84° East 365 420 17,000 -300 Descending Phoenix TRACON
11:55PM 33.2769 -112.9678 103° East 364 419 17,000 -720 Level Albuquerque Center
11:56PM 33.2800 -112.8528 88° East 352 405 16,100 -900 Descending Albuquerque Center